Time;durP1;ratioP1;P1;durP2;ratioP2;P2;SDS_P1;SDS_P2;PMS_P1;PMS_P2;Temp;Humidity;BMP_temperature;BMP_pressure;BME280_temperature;BME280_humidity;BME280_pressure;Samples;Min_cycle;Max_cycle;Signal;HPM_P1;HPM_P2
2021/07/21 00:00:46;;;;;;;21.38;9.68;;;;;;;;;;5031143;28;20032;-74
2021/07/21 00:03:11;;;;;;;19.88;10.85;;;;;;;;;;5032270;28;20470;-74
2021/07/21 00:05:38;;;;;;;19.40;9.95;;;;;;;;;;5032500;28;20017;-74
2021/07/21 00:08:04;;;;;;;18.52;10.25;;;;;;;;;;5031463;28;20028;-74
2021/07/21 00:10:31;;;;;;;17.00;10.75;;;;;;;;;;5030748;28;20025;-74
2021/07/21 00:18:33;;;;;;;48.10;12.23;;;;;;;;;;5032321;28;20068;-74
2021/07/21 00:20:59;;;;;;;17.20;9.88;;;;;;;;;;5032080;28;20037;-74
2021/07/21 00:23:25;;;;;;;16.77;10.32;;;;;;;;;;5030481;28;20029;-73
2021/07/21 00:25:51;;;;;;;18.48;10.93;;;;;;;;;;5030565;28;20128;-74
2021/07/21 00:28:17;;;;;;;16.85;10.57;;;;;;;;;;5030472;28;20115;-74
2021/07/21 00:30:43;;;;;;;15.95;9.73;;;;;;;;;;5030694;28;20060;-73
2021/07/21 00:33:09;;;;;;;20.42;10.18;;;;;;;;;;5031891;28;20065;-74
2021/07/21 00:35:35;;;;;;;20.42;10.55;;;;;;;;;;5030574;28;20032;-73
2021/07/21 00:38:00;;;;;;;14.15;9.15;;;;;;;;;;5030366;28;20469;-73
2021/07/21 00:40:26;;;;;;;18.05;10.10;;;;;;;;;;5029522;28;20040;-73
2021/07/21 00:42:52;;;;;;;17.90;10.48;;;;;;;;;;5030680;28;20051;-74
2021/07/21 00:45:17;;;;;;;20.20;11.88;;;;;;;;;;5030404;28;20029;-74
2021/07/21 00:47:43;;;;;;;26.30;11.95;;;;;;;;;;5031742;28;20120;-74
2021/07/21 00:50:10;;;;;;;19.23;11.07;;;;;;;;;;5030420;28;20045;-74
2021/07/21 00:52:38;;;;;;;15.55;9.50;;;;;;;;;;5031538;28;20413;-74
2021/07/21 00:55:09;;;;;;;20.27;11.18;;;;;;;;;;5030014;28;20444;-74
2021/07/21 00:57:35;;;;;;;19.48;11.10;;;;;;;;;;5030054;28;20026;-76
2021/07/21 01:00:01;;;;;;;22.77;11.18;;;;;;;;;;5030259;28;20041;-74
2021/07/21 01:02:27;;;;;;;17.10;9.98;;;;;;;;;;5029793;28;20028;-74
2021/07/21 01:04:53;;;;;;;15.73;10.15;;;;;;;;;;5030021;28;20060;-74
2021/07/21 01:07:18;;;;;;;19.95;11.07;;;;;;;;;;5029817;28;20469;-74
2021/07/21 01:09:45;;;;;;;20.98;10.23;;;;;;;;;;5031484;28;20032;-75
2021/07/21 01:12:27;;;;;;;21.30;10.57;;;;;;;;;;5029794;28;20049;-74
2021/07/21 01:15:14;;;;;;;16.02;9.45;;;;;;;;;;5031458;28;20079;-75
2021/07/21 01:17:48;;;;;;;21.40;10.30;;;;;;;;;;5030326;28;20033;-73
2021/07/21 01:20:46;;;;;;;18.17;10.95;;;;;;;;;;5031170;28;20032;-73
2021/07/21 01:23:36;;;;;;;17.88;9.32;;;;;;;;;;5029880;28;20473;-73
2021/07/21 01:26:11;;;;;;;17.00;10.65;;;;;;;;;;5029569;28;20026;-73
2021/07/21 01:28:41;;;;;;;17.05;10.65;;;;;;;;;;5029412;28;20175;-73
2021/07/21 01:31:12;;;;;;;17.38;10.50;;;;;;;;;;5029799;28;20083;-74
2021/07/21 01:33:39;;;;;;;18.70;10.13;;;;;;;;;;5029475;28;20027;-74
2021/07/21 01:36:22;;;;;;;18.67;10.00;;;;;;;;;;5029600;28;20022;-74
2021/07/21 01:38:51;;;;;;;21.70;10.35;;;;;;;;;;5030817;28;20060;-74
2021/07/21 01:41:24;;;;;;;24.48;10.60;;;;;;;;;;5029147;28;20028;-74
2021/07/21 01:43:54;;;;;;;17.50;10.45;;;;;;;;;;5030673;28;20389;-74
2021/07/21 01:46:24;;;;;;;31.73;11.63;;;;;;;;;;5028987;28;20029;-74
2021/07/21 01:48:53;;;;;;;20.58;11.27;;;;;;;;;;5030506;28;20040;-74
2021/07/21 01:51:22;;;;;;;20.73;11.10;;;;;;;;;;5030300;28;20057;-74
2021/07/21 01:53:48;;;;;;;18.90;10.60;;;;;;;;;;5029247;28;20029;-74
2021/07/21 01:56:14;;;;;;;20.50;10.95;;;;;;;;;;5028662;28;20493;-74
2021/07/21 01:58:41;;;;;;;18.80;10.77;;;;;;;;;;5028658;28;20059;-74
2021/07/21 02:01:10;;;;;;;18.85;11.20;;;;;;;;;;5029004;28;20434;-74
2021/07/21 02:03:39;;;;;;;23.45;10.88;;;;;;;;;;5028910;28;20025;-74
2021/07/21 02:06:06;;;;;;;22.50;10.77;;;;;;;;;;5028861;28;20030;-73
2021/07/21 02:08:33;;;;;;;19.00;10.57;;;;;;;;;;5029877;28;20026;-73
2021/07/21 02:11:05;;;;;;;24.02;10.43;;;;;;;;;;5028947;28;20029;-73
2021/07/21 02:13:32;;;;;;;17.95;10.60;;;;;;;;;;5028551;28;20048;-74
2021/07/21 02:15:58;;;;;;;19.50;11.43;;;;;;;;;;5028655;28;20079;-73
2021/07/21 02:18:25;;;;;;;20.33;11.57;;;;;;;;;;5028386;28;20071;-73
2021/07/21 02:20:52;;;;;;;21.02;11.15;;;;;;;;;;5029897;28;20059;-73
2021/07/21 02:23:20;;;;;;;18.83;10.60;;;;;;;;;;5028515;28;20029;-73
2021/07/21 02:25:48;;;;;;;18.63;11.13;;;;;;;;;;5028477;28;20037;-73
2021/07/21 02:28:14;;;;;;;18.33;11.05;;;;;;;;;;5029808;28;20037;-74
2021/07/21 02:30:43;;;;;;;21.42;10.77;;;;;;;;;;5028210;28;20044;-73
2021/07/21 02:33:15;;;;;;;19.70;10.57;;;;;;;;;;5028467;28;20623;-73
2021/07/21 02:35:41;;;;;;;17.17;11.30;;;;;;;;;;5029680;28;20037;-73
2021/07/21 02:38:06;;;;;;;21.90;10.48;;;;;;;;;;5029566;28;20558;-73
2021/07/21 02:40:33;;;;;;;19.45;10.90;;;;;;;;;;5028099;28;20025;-73
2021/07/21 02:42:59;;;;;;;23.65;11.35;;;;;;;;;;5029640;28;20365;-73
2021/07/21 02:45:26;;;;;;;23.38;13.70;;;;;;;;;;5028141;28;20025;-74
2021/07/21 02:47:52;;;;;;;21.77;11.07;;;;;;;;;;5028256;28;20431;-74
2021/07/21 02:50:18;;;;;;;19.17;11.23;;;;;;;;;;5029900;28;20104;-75
2021/07/21 02:53:03;;;;;;;23.48;12.20;;;;;;;;;;5027748;28;20022;-74
2021/07/21 02:55:34;;;;;;;21.85;12.38;;;;;;;;;;5027889;28;20080;-74
2021/07/21 02:58:09;;;;;;;21.23;12.68;;;;;;;;;;5028184;28;20072;-74
2021/07/21 03:00:35;;;;;;;21.05;12.40;;;;;;;;;;5029195;28;20036;-74
2021/07/21 03:03:05;;;;;;;23.13;12.48;;;;;;;;;;5029262;28;20021;-74
2021/07/21 03:05:31;;;;;;;25.67;12.10;;;;;;;;;;5029531;28;20029;-74
2021/07/21 03:07:58;;;;;;;19.67;11.43;;;;;;;;;;5028239;28;20025;-74
2021/07/21 03:10:25;;;;;;;27.58;14.50;;;;;;;;;;5027715;28;20099;-74
2021/07/21 03:13:05;;;;;;;33.65;13.48;;;;;;;;;;5029190;28;20499;-74
2021/07/21 03:15:34;;;;;;;21.77;11.90;;;;;;;;;;5029112;28;20029;-74
2021/07/21 03:18:02;;;;;;;21.45;10.77;;;;;;;;;;5027908;28;20030;-74
2021/07/21 03:20:29;;;;;;;22.60;12.30;;;;;;;;;;5027670;28;20113;-75
2021/07/21 03:22:57;;;;;;;22.52;11.45;;;;;;;;;;5027903;28;20092;-75
2021/07/21 03:25:24;;;;;;;24.80;12.70;;;;;;;;;;5027635;28;20030;-75
2021/07/21 03:27:51;;;;;;;18.45;10.80;;;;;;;;;;5029313;28;20021;-74
2021/07/21 03:30:17;;;;;;;16.73;10.82;;;;;;;;;;5029131;28;20075;-74
2021/07/21 03:32:47;;;;;;;24.45;12.35;;;;;;;;;;5028813;28;20034;-74
2021/07/21 03:35:13;;;;;;;21.80;11.85;;;;;;;;;;5027675;28;20107;-74
2021/07/21 03:37:45;;;;;;;24.83;12.02;;;;;;;;;;5027580;28;20417;-74
2021/07/21 03:40:12;;;;;;;19.95;11.88;;;;;;;;;;5027805;28;20075;-74
2021/07/21 03:42:38;;;;;;;25.70;13.63;;;;;;;;;;5027412;28;20029;-74
2021/07/21 03:45:11;;;;;;;19.63;12.00;;;;;;;;;;5027589;28;20029;-74
2021/07/21 03:47:39;;;;;;;23.88;12.77;;;;;;;;;;5027378;28;20017;-73
2021/07/21 03:50:07;;;;;;;22.55;12.57;;;;;;;;;;5027535;28;20021;-73
2021/07/21 03:52:34;;;;;;;24.38;13.88;;;;;;;;;;5027297;28;20057;-74
2021/07/21 03:55:02;;;;;;;21.55;13.65;;;;;;;;;;5028731;28;20144;-74
2021/07/21 03:57:28;;;;;;;25.73;13.32;;;;;;;;;;5027234;28;20021;-74
2021/07/21 03:59:54;;;;;;;26.52;13.95;;;;;;;;;;5027352;28;20432;-74
2021/07/21 04:02:21;;;;;;;19.60;12.90;;;;;;;;;;5027334;28;20075;-74
2021/07/21 04:04:48;;;;;;;21.05;12.65;;;;;;;;;;5028510;28;20035;-74
2021/07/21 04:07:15;;;;;;;23.15;13.07;;;;;;;;;;5028671;28;20491;-74
2021/07/21 04:09:43;;;;;;;19.20;12.20;;;;;;;;;;5027300;28;20018;-74
2021/07/21 04:12:10;;;;;;;21.25;12.52;;;;;;;;;;5028917;28;20018;-74
2021/07/21 04:14:36;;;;;;;23.52;13.32;;;;;;;;;;5027362;28;20029;-74
2021/07/21 04:17:02;;;;;;;23.23;12.77;;;;;;;;;;5030686;28;20108;-73
2021/07/21 04:19:29;;;;;;;21.67;12.40;;;;;;;;;;5030767;28;20037;-73
2021/07/21 04:21:55;;;;;;;24.85;13.35;;;;;;;;;;5030974;28;20030;-73
2021/07/21 04:24:23;;;;;;;22.13;12.90;;;;;;;;;;5030728;28;20025;-74
2021/07/21 04:26:50;;;;;;;21.95;12.52;;;;;;;;;;5030403;28;20021;-73
2021/07/21 04:29:22;;;;;;;25.35;11.45;;;;;;;;;;5030663;28;20116;-73
2021/07/21 04:31:49;;;;;;;26.27;13.52;;;;;;;;;;5031761;28;20025;-74
2021/07/21 04:34:16;;;;;;;21.35;12.93;;;;;;;;;;5030681;28;20021;-74
2021/07/21 04:36:42;;;;;;;23.00;12.75;;;;;;;;;;5031909;28;20026;-75
2021/07/21 04:39:11;;;;;;;19.30;13.10;;;;;;;;;;5030485;28;20032;-74
2021/07/21 04:41:37;;;;;;;21.05;13.25;;;;;;;;;;5031659;28;20025;-74
2021/07/21 04:44:04;;;;;;;22.50;11.73;;;;;;;;;;5030596;28;20866;-74
2021/07/21 04:46:33;;;;;;;26.35;13.20;;;;;;;;;;5031682;28;20021;-74
2021/07/21 04:49:00;;;;;;;25.45;13.27;;;;;;;;;;5030370;28;20025;-74
2021/07/21 04:51:27;;;;;;;22.40;13.95;;;;;;;;;;5031937;28;20036;-74
2021/07/21 04:53:55;;;;;;;20.60;12.35;;;;;;;;;;5030086;28;20029;-76
2021/07/21 04:56:21;;;;;;;23.08;12.32;;;;;;;;;;5046547;28;20111;-75
2021/07/21 04:58:47;;;;;;;19.85;12.40;;;;;;;;;;5031501;28;20029;-75
2021/07/21 05:01:13;;;;;;;19.52;12.85;;;;;;;;;;5030199;28;20025;-75
2021/07/21 05:03:39;;;;;;;20.70;13.02;;;;;;;;;;5029900;28;20101;-75
2021/07/21 05:06:05;;;;;;;25.30;12.75;;;;;;;;;;5030380;28;20025;-74
2021/07/21 05:08:32;;;;;;;22.13;13.45;;;;;;;;;;5029908;28;20676;-76
2021/07/21 05:10:57;;;;;;;20.23;11.07;;;;;;;;;;5031334;28;20032;-75
2021/07/21 05:13:23;;;;;;;25.35;12.75;;;;;;;;;;5031245;28;20044;-75
2021/07/21 05:15:48;;;;;;;129.80;33.95;;;;;;;;;;5029767;28;20033;-75
2021/07/21 05:18:14;;;;;;;29.40;13.20;;;;;;;;;;5029726;28;20392;-74
2021/07/21 05:20:40;;;;;;;20.83;12.15;;;;;;;;;;5031157;28;20037;-74
2021/07/21 05:23:06;;;;;;;17.13;10.80;;;;;;;;;;5031863;28;20018;-75
2021/07/21 05:25:32;;;;;;;17.58;10.70;;;;;;;;;;5029787;28;20053;-75
2021/07/21 05:27:57;;;;;;;29.42;19.30;;;;;;;;;;5029747;28;20459;-75
2021/07/21 05:30:23;;;;;;;17.92;11.80;;;;;;;;;;5030108;28;20048;-74
2021/07/21 05:32:48;;;;;;;20.77;10.77;;;;;;;;;;5031046;28;20029;-73
2021/07/21 05:35:15;;;;;;;17.15;10.80;;;;;;;;;;5029952;28;20041;-75
2021/07/21 05:37:41;;;;;;;19.42;11.73;;;;;;;;;;5030645;28;20485;-75
2021/07/21 05:40:07;;;;;;;18.35;10.10;;;;;;;;;;5027477;28;20629;-74
2021/07/21 05:42:33;;;;;;;17.63;10.65;;;;;;;;;;5023849;28;20172;-74
2021/07/21 05:44:59;;;;;;;29.25;12.75;;;;;;;;;;5045836;28;20132;-74
2021/07/21 05:47:24;;;;;;;24.90;12.25;;;;;;;;;;5030717;28;20374;-75
2021/07/21 05:49:50;;;;;;;19.92;11.25;;;;;;;;;;5045247;28;20029;-74
2021/07/21 05:52:16;;;;;;;19.40;9.77;;;;;;;;;;5045626;28;20032;-75
2021/07/21 05:54:42;;;;;;;27.33;20.55;;;;;;;;;;5029648;28;20355;-76
2021/07/21 05:57:08;;;;;;;20.42;10.45;;;;;;;;;;5045237;28;20040;-74
2021/07/21 05:59:34;;;;;;;54.38;12.75;;;;;;;;;;5044388;28;20497;-75
2021/07/21 06:02:00;;;;;;;15.40;9.52;;;;;;;;;;5045497;28;20033;-74
2021/07/21 06:04:26;;;;;;;20.33;10.07;;;;;;;;;;5045418;28;20032;-74
2021/07/21 06:06:52;;;;;;;14.18;8.52;;;;;;;;;;5044425;28;20026;-74
2021/07/21 06:09:18;;;;;;;21.02;9.75;;;;;;;;;;5029773;28;20083;-74
2021/07/21 06:11:43;;;;;;;16.38;9.07;;;;;;;;;;5044740;28;20095;-75
2021/07/21 06:14:10;;;;;;;18.13;9.73;;;;;;;;;;5045033;28;20500;-74
2021/07/21 06:16:37;;;;;;;15.63;8.27;;;;;;;;;;5044303;28;20030;-74
2021/07/21 06:19:03;;;;;;;14.48;7.95;;;;;;;;;;5044848;28;20407;-74
2021/07/21 06:21:29;;;;;;;16.92;8.60;;;;;;;;;;5044822;28;20503;-74
2021/07/21 06:23:54;;;;;;;18.35;8.95;;;;;;;;;;5029298;28;20060;-74
2021/07/21 06:26:20;;;;;;;20.05;9.35;;;;;;;;;;5027980;28;20481;-73
2021/07/21 06:28:48;;;;;;;18.77;8.27;;;;;;;;;;5029908;28;20121;-76
2021/07/21 06:31:14;;;;;;;14.93;7.97;;;;;;;;;;5029383;28;20103;-75
2021/07/21 06:33:40;;;;;;;11.48;7.80;;;;;;;;;;5029116;28;20532;-75
2021/07/21 06:36:05;;;;;;;19.65;8.80;;;;;;;;;;5027596;28;20033;-75
2021/07/21 06:38:31;;;;;;;12.18;6.97;;;;;;;;;;5028847;28;20037;-74
2021/07/21 06:40:57;;;;;;;10.00;6.82;;;;;;;;;;5027711;28;20477;-74
2021/07/21 06:43:23;;;;;;;12.55;7.28;;;;;;;;;;5027492;28;20476;-74
2021/07/21 06:45:49;;;;;;;14.43;8.02;;;;;;;;;;5028789;28;20032;-75
2021/07/21 06:48:15;;;;;;;12.32;6.60;;;;;;;;;;5027421;28;20540;-74
2021/07/21 06:50:40;;;;;;;11.77;6.63;;;;;;;;;;5021086;28;20021;-74
2021/07/21 06:53:06;;;;;;;10.75;6.32;;;;;;;;;;5022429;28;20092;-74
2021/07/21 06:55:32;;;;;;;17.42;6.93;;;;;;;;;;5040501;28;20052;-74
2021/07/21 06:57:59;;;;;;;13.25;7.07;;;;;;;;;;5022833;28;20094;-73
2021/07/21 07:00:26;;;;;;;13.27;6.32;;;;;;;;;;5026639;28;20042;-73
2021/07/21 07:02:52;;;;;;;12.30;5.57;;;;;;;;;;5022168;28;20037;-74
2021/07/21 07:05:18;;;;;;;18.13;5.28;;;;;;;;;;5016934;28;20124;-75
2021/07/21 07:07:43;;;;;;;12.23;4.82;;;;;;;;;;5024565;28;20014;-74
2021/07/21 07:10:10;;;;;;;17.05;4.80;;;;;;;;;;5008854;28;20029;-74
2021/07/21 07:12:36;;;;;;;10.65;5.75;;;;;;;;;;5023998;28;20037;-74
2021/07/21 07:15:03;;;;;;;13.00;5.80;;;;;;;;;;5023301;28;20030;-75
2021/07/21 07:17:29;;;;;;;9.50;3.88;;;;;;;;;;5027109;28;20053;-74
2021/07/21 07:19:54;;;;;;;15.80;4.97;;;;;;;;;;5021807;28;20052;-73
2021/07/21 07:22:20;;;;;;;7.78;4.50;;;;;;;;;;5012727;28;20562;-75
2021/07/21 07:24:46;;;;;;;9.20;5.28;;;;;;;;;;5026579;28;20029;-74
2021/07/21 07:27:11;;;;;;;10.05;4.30;;;;;;;;;;5022132;28;20025;-75
2021/07/21 07:29:37;;;;;;;10.98;5.25;;;;;;;;;;5033430;28;20042;-76
2021/07/21 07:32:03;;;;;;;7.03;4.15;;;;;;;;;;5021993;28;20302;-76
2021/07/21 07:34:29;;;;;;;9.02;4.22;;;;;;;;;;5015682;28;20029;-74
2021/07/21 07:36:54;;;;;;;11.30;5.40;;;;;;;;;;5025526;28;20084;-75
2021/07/21 07:39:21;;;;;;;7.57;4.72;;;;;;;;;;5026584;28;20040;-74
2021/07/21 07:41:48;;;;;;;19.23;5.28;;;;;;;;;;5025432;28;20032;-74
2021/07/21 07:44:14;;;;;;;10.57;5.00;;;;;;;;;;5016521;28;20021;-74
2021/07/21 07:46:40;;;;;;;12.70;4.75;;;;;;;;;;5032021;28;20021;-75
2021/07/21 07:49:06;;;;;;;5.90;4.32;;;;;;;;;;5024310;28;20091;-74
2021/07/21 07:51:33;;;;;;;7.22;4.03;;;;;;;;;;5028946;28;20469;-76
2021/07/21 07:53:58;;;;;;;17.92;4.70;;;;;;;;;;5024319;28;20346;-75
2021/07/21 07:56:25;;;;;;;10.70;4.88;;;;;;;;;;5026600;28;20395;-77
2021/07/21 07:58:52;;;;;;;5.80;4.18;;;;;;;;;;5040592;28;20061;-75
2021/07/21 08:01:17;;;;;;;7.75;4.25;;;;;;;;;;5026533;28;20037;-76
2021/07/21 08:03:43;;;;;;;8.82;4.50;;;;;;;;;;5017396;28;20416;-75
2021/07/21 08:06:08;;;;;;;7.45;4.10;;;;;;;;;;5029780;28;20504;-76
2021/07/21 08:08:34;;;;;;;7.68;4.93;;;;;;;;;;5029284;28;20453;-76
2021/07/21 08:11:00;;;;;;;13.10;4.88;;;;;;;;;;5028796;28;20373;-75
2021/07/21 08:13:26;;;;;;;10.57;4.55;;;;;;;;;;5029729;28;20033;-75
2021/07/21 08:16:03;;;;;;;6.68;3.72;;;;;;;;;;5018317;28;20034;-76
2021/07/21 08:18:29;;;;;;;6.10;4.07;;;;;;;;;;5018338;28;20436;-74
2021/07/21 08:20:54;;;;;;;7.78;3.92;;;;;;;;;;5027238;28;20029;-75
2021/07/21 08:23:20;;;;;;;8.20;4.00;;;;;;;;;;5020354;28;20034;-75
2021/07/21 08:25:46;;;;;;;5.53;3.78;;;;;;;;;;5018928;28;20030;-75
2021/07/21 08:28:14;;;;;;;10.90;4.53;;;;;;;;;;5029088;28;20053;-75
2021/07/21 08:30:44;;;;;;;6.32;4.88;;;;;;;;;;5030493;28;20025;-75
2021/07/21 08:33:13;;;;;;;6.68;4.35;;;;;;;;;;5031029;28;20107;-75
2021/07/21 08:35:40;;;;;;;8.98;4.50;;;;;;;;;;5029954;28;20022;-75
2021/07/21 08:38:10;;;;;;;7.13;4.15;;;;;;;;;;5032281;28;20515;-75
2021/07/21 08:40:40;;;;;;;9.02;4.22;;;;;;;;;;5032385;28;20126;-77
2021/07/21 08:43:08;;;;;;;7.68;3.67;;;;;;;;;;5032598;28;20029;-79
2021/07/21 08:45:34;;;;;;;8.63;4.07;;;;;;;;;;5031143;28;20518;-75
2021/07/21 08:48:01;;;;;;;7.47;4.60;;;;;;;;;;5019734;28;20026;-74
2021/07/21 08:50:26;;;;;;;10.88;4.60;;;;;;;;;;5024688;28;20053;-75
2021/07/21 08:52:56;;;;;;;7.05;4.55;;;;;;;;;;5027575;28;20138;-75
2021/07/21 08:55:23;;;;;;;14.38;5.05;;;;;;;;;;5038716;28;20091;-74
2021/07/21 08:57:51;;;;;;;10.25;4.97;;;;;;;;;;5014994;28;20041;-76
2021/07/21 09:00:21;;;;;;;12.55;5.28;;;;;;;;;;5030024;28;20029;-75
2021/07/21 09:02:55;;;;;;;7.80;4.60;;;;;;;;;;5017625;28;20527;-74
2021/07/21 09:05:21;;;;;;;11.85;4.97;;;;;;;;;;5028347;28;20044;-74
2021/07/21 09:07:47;;;;;;;9.45;4.25;;;;;;;;;;5019719;28;20022;-73
2021/07/21 09:10:19;;;;;;;7.70;4.38;;;;;;;;;;5017655;28;20030;-75
2021/07/21 09:12:50;;;;;;;7.13;4.55;;;;;;;;;;5030810;28;20017;-75
2021/07/21 09:15:20;;;;;;;22.63;6.30;;;;;;;;;;5027474;28;20025;-74
2021/07/21 09:18:06;;;;;;;5.90;4.05;;;;;;;;;;5017866;28;20130;-74
2021/07/21 09:20:39;;;;;;;6.63;4.90;;;;;;;;;;5025063;28;20026;-75
2021/07/21 09:23:05;;;;;;;13.05;4.90;;;;;;;;;;5014641;28;20043;-75
2021/07/21 09:25:40;;;;;;;8.15;4.28;;;;;;;;;;5018765;28;20045;-76
2021/07/21 09:28:08;;;;;;;16.40;6.82;;;;;;;;;;5019497;28;20505;-75
2021/07/21 09:30:45;;;;;;;13.60;4.68;;;;;;;;;;5028018;28;20092;-75
2021/07/21 09:33:17;;;;;;;7.40;3.72;;;;;;;;;;5029339;28;20075;-75
2021/07/21 09:35:46;;;;;;;9.95;4.30;;;;;;;;;;5021601;28;20816;-75
2021/07/21 09:38:18;;;;;;;8.40;4.65;;;;;;;;;;5042459;28;20037;-75
2021/07/21 09:40:44;;;;;;;;;;;;;;;;;;5028518;28;20061;-74
2021/07/21 09:43:15;;;;;;;5.93;4.32;;;;;;;;;;5027857;28;20342;-75
2021/07/21 09:45:42;;;;;;;8.70;4.43;;;;;;;;;;5027809;28;20169;-74
2021/07/21 09:48:08;;;;;;;7.00;4.35;;;;;;;;;;5024352;28;20026;-73
2021/07/21 09:50:35;;;;;;;8.88;4.47;;;;;;;;;;5018386;28;20030;-76
2021/07/21 09:53:07;;;;;;;8.15;3.53;;;;;;;;;;5033335;28;20037;-75
2021/07/21 09:55:35;;;;;;;8.38;4.03;;;;;;;;;;5017011;28;20569;-75
2021/07/21 09:58:10;;;;;;;8.70;4.50;;;;;;;;;;5026735;28;20448;-74
2021/07/21 10:00:41;;;;;;;8.20;4.07;;;;;;;;;;5025803;28;20072;-75
2021/07/21 10:03:18;;;;;;;11.80;5.22;;;;;;;;;;5027556;28;20029;-75
2021/07/21 10:05:59;;;;;;;12.43;4.63;;;;;;;;;;5043854;28;20087;-74
2021/07/21 10:08:54;;;;;;;9.95;4.80;;;;;;;;;;5025761;28;20021;-75
2021/07/21 10:11:23;;;;;;;11.10;5.75;;;;;;;;;;5021240;28;20674;-75
2021/07/21 10:14:07;;;;;;;9.48;4.70;;;;;;;;;;5042092;28;20029;-74
2021/07/21 10:16:37;;;;;;;11.10;4.85;;;;;;;;;;5026353;28;20105;-74
2021/07/21 10:19:08;;;;;;;8.93;4.82;;;;;;;;;;5026648;28;20025;-74
2021/07/21 10:21:37;;;;;;;12.05;4.20;;;;;;;;;;5026458;28;20064;-74
2021/07/21 10:24:03;;;;;;;8.57;4.20;;;;;;;;;;5011919;28;20080;-74
2021/07/21 10:26:29;;;;;;;11.13;3.80;;;;;;;;;;5020560;28;20066;-75
2021/07/21 10:28:57;;;;;;;11.63;4.93;;;;;;;;;;5027268;28;20971;-75
2021/07/21 10:31:23;;;;;;;8.95;4.13;;;;;;;;;;5022744;28;20486;-73
2021/07/21 10:33:49;;;;;;;9.48;4.75;;;;;;;;;;5034786;28;20124;-74
2021/07/21 10:36:18;;;;;;;9.82;4.43;;;;;;;;;;5024492;28;20121;-75
2021/07/21 10:38:44;;;;;;;9.40;4.72;;;;;;;;;;5022266;28;20079;-74
2021/07/21 10:41:10;;;;;;;11.15;4.50;;;;;;;;;;5021173;28;20108;-76
2021/07/21 10:43:36;;;;;;;8.38;4.97;;;;;;;;;;5018447;28;20080;-74
2021/07/21 10:46:30;;;;;;;8.48;4.95;;;;;;;;;;5023043;28;20052;-74
2021/07/21 10:49:15;;;;;;;9.52;4.75;;;;;;;;;;5026085;28;20029;-74
2021/07/21 10:55:19;;;;;;;11.18;9.63;;;;;;;;;;5035408;28;20026;-75
2021/07/21 11:00:13;;;;;;;11.27;5.15;;;;;;;;;;5025189;28;20060;-75
2021/07/21 11:02:38;;;;;;;;;;;;;;;;;;5028552;28;20377;-74
2021/07/21 11:05:09;;;;;;;10.57;4.85;;;;;;;;;;5018954;28;19919;-74
2021/07/21 11:07:54;;;;;;;11.15;6.13;;;;;;;;;;5016111;28;20028;-76
2021/07/21 11:10:31;;;;;;;6.00;3.67;;;;;;;;;;5027729;28;20030;-73
2021/07/21 11:12:57;;;;;;;7.43;4.03;;;;;;;;;;5024838;28;20032;-73
2021/07/21 11:15:45;;;;;;;13.73;5.15;;;;;;;;;;5018367;28;20052;-74
2021/07/21 11:18:23;;;;;;;11.60;4.68;;;;;;;;;;5021113;28;20030;-73
2021/07/21 11:21:07;;;;;;;10.32;5.30;;;;;;;;;;5008689;28;20128;-74
2021/07/21 11:23:47;;;;;;;8.75;4.88;;;;;;;;;;5017031;28;20321;-75
2021/07/21 11:26:32;;;;;;;6.63;4.60;;;;;;;;;;5029152;28;20668;-75
2021/07/21 11:29:18;;;;;;;9.27;4.97;;;;;;;;;;5024560;28;20030;-74
2021/07/21 11:31:50;;;;;;;8.68;4.28;;;;;;;;;;5023347;28;20029;-74
2021/07/21 11:34:17;;;;;;;22.27;4.72;;;;;;;;;;5027803;28;20044;-73
2021/07/21 11:36:46;;;;;;;11.43;4.97;;;;;;;;;;5028007;28;20029;-75
2021/07/21 11:39:54;;;;;;;7.82;4.45;;;;;;;;;;5027592;28;20045;-75
2021/07/21 11:42:23;;;;;;;17.85;5.82;;;;;;;;;;5029487;28;20064;-76
2021/07/21 11:44:50;;;;;;;10.43;5.20;;;;;;;;;;5029300;28;20029;-75
2021/07/21 11:47:18;;;;;;;17.10;4.90;;;;;;;;;;5027857;28;20029;-75
2021/07/21 11:50:09;;;;;;;7.28;4.00;;;;;;;;;;5024842;28;20033;-75
2021/07/21 11:52:35;;;;;;;10.98;5.15;;;;;;;;;;5029679;28;20040;-75
2021/07/21 11:55:00;;;;;;;8.45;4.05;;;;;;;;;;5044551;28;20041;-74
2021/07/21 11:57:27;;;;;;;8.40;3.78;;;;;;;;;;5028096;28;20026;-74
2021/07/21 11:59:55;;;;;;;7.57;3.58;;;;;;;;;;5026193;28;20025;-75
2021/07/21 12:02:24;;;;;;;8.32;3.67;;;;;;;;;;5042999;28;20816;-74
2021/07/21 12:04:52;;;;;;;12.70;7.43;;;;;;;;;;5029477;28;20021;-74
2021/07/21 12:07:22;;;;;;;6.38;5.30;;;;;;;;;;5021497;28;20110;-74
2021/07/21 12:09:53;;;;;;;11.63;4.70;;;;;;;;;;5028078;28;20473;-75
2021/07/21 12:12:25;;;;;;;6.80;4.00;;;;;;;;;;5027726;28;20174;-75
2021/07/21 12:14:55;;;;;;;8.93;3.83;;;;;;;;;;5030827;28;20048;-76
2021/07/21 12:17:23;;;;;;;6.68;3.65;;;;;;;;;;5027826;28;20117;-75
2021/07/21 12:19:57;;;;;;;6.05;3.25;;;;;;;;;;5027634;28;20649;-74
2021/07/21 12:22:23;;;;;;;7.57;3.90;;;;;;;;;;5029364;28;20088;-75
2021/07/21 12:24:51;;;;;;;5.38;3.58;;;;;;;;;;5023368;28;20029;-75
2021/07/21 12:27:30;;;;;;;22.98;4.70;;;;;;;;;;5029275;28;20602;-75
2021/07/21 12:30:00;;;;;;;6.03;3.58;;;;;;;;;;5030291;28;20448;-77
2021/07/21 12:32:26;;;;;;;23.25;5.30;;;;;;;;;;5016956;28;20483;-75
2021/07/21 12:34:53;;;;;;;22.70;4.55;;;;;;;;;;5029068;28;20095;-75
2021/07/21 12:37:27;;;;;;;12.68;4.30;;;;;;;;;;5027368;28;20033;-74
2021/07/21 12:39:54;;;;;;;9.05;4.50;;;;;;;;;;5027451;28;20048;-76
2021/07/21 12:42:22;;;;;;;16.30;4.60;;;;;;;;;;5028551;28;20069;-76
2021/07/21 12:45:00;;;;;;;8.07;3.95;;;;;;;;;;5028081;28;20080;-75
2021/07/21 12:47:28;;;;;;;10.55;4.43;;;;;;;;;;5028158;28;20218;-75
2021/07/21 12:50:03;;;;;;;6.70;3.95;;;;;;;;;;5015849;28;20453;-77
2021/07/21 12:52:34;;;;;;;4.95;4.03;;;;;;;;;;5029391;28;20029;-74
2021/07/21 12:55:03;;;;;;;4.28;2.78;;;;;;;;;;5022117;28;20099;-76
2021/07/21 12:57:38;;;;;;;11.20;3.40;;;;;;;;;;5028764;28;20041;-75
2021/07/21 13:00:11;;;;;;;9.38;4.10;;;;;;;;;;5026319;28;20580;-76
2021/07/21 13:02:36;;;;;;;7.25;4.38;;;;;;;;;;5025594;28;20075;-76
2021/07/21 13:05:22;;;;;;;9.45;4.20;;;;;;;;;;5024817;28;20029;-75
2021/07/21 13:08:17;;;;;;;7.10;4.65;;;;;;;;;;5028641;28;20129;-76
2021/07/21 13:10:44;;;;;;;7.47;4.22;;;;;;;;;;5019516;28;20072;-75
2021/07/21 13:13:24;;;;;;;9.52;3.88;;;;;;;;;;5027172;28;20481;-74
2021/07/21 13:16:12;;;;;;;6.40;3.95;;;;;;;;;;5021575;28;20047;-76
2021/07/21 13:18:44;;;;;;;6.85;5.00;;;;;;;;;;5021884;28;20243;-74
2021/07/21 13:21:30;;;;;;;6.10;3.40;;;;;;;;;;5029321;28;20025;-76
2021/07/21 13:24:08;;;;;;;11.90;4.70;;;;;;;;;;5028831;28;20112;-77
2021/07/21 13:26:35;;;;;;;7.28;4.10;;;;;;;;;;5027413;28;20072;-76
2021/07/21 13:29:04;;;;;;;9.30;4.20;;;;;;;;;;5024615;28;20039;-76
2021/07/21 13:31:35;;;;;;;11.43;4.95;;;;;;;;;;5027655;28;20059;-75
2021/07/21 13:34:01;;;;;;;5.40;3.58;;;;;;;;;;5024858;28;20036;-76
2021/07/21 13:36:38;;;;;;;11.25;4.10;;;;;;;;;;5028329;28;20030;-76
2021/07/21 13:39:06;;;;;;;9.73;3.78;;;;;;;;;;5027217;28;20022;-76
2021/07/21 13:41:36;;;;;;;10.60;4.43;;;;;;;;;;5031380;28;20076;-75
2021/07/21 13:44:07;;;;;;;8.60;3.83;;;;;;;;;;5028377;28;20033;-74
2021/07/21 13:46:54;;;;;;;5.88;4.07;;;;;;;;;;5014077;28;20026;-74
2021/07/21 13:49:34;;;;;;;9.40;4.93;;;;;;;;;;5029614;28;20041;-74
2021/07/21 13:52:10;;;;;;;7.68;4.00;;;;;;;;;;5025659;28;20022;-75
2021/07/21 13:54:40;;;;;;;6.38;3.63;;;;;;;;;;5016407;28;20021;-77
2021/07/21 13:57:08;;;;;;;;;;;;;;;;;;5026108;28;20032;-76
2021/07/21 13:59:37;;;;;;;4.85;3.88;;;;;;;;;;5039077;28;20242;-75
2021/07/21 14:02:06;;;;;;;12.30;5.93;;;;;;;;;;5025341;28;20028;-75
2021/07/21 14:04:33;;;;;;;11.45;4.53;;;;;;;;;;5027978;28;20036;-77
2021/07/21 14:07:01;;;;;;;11.52;4.22;;;;;;;;;;5027689;28;20044;-75
2021/07/21 14:09:26;;;;;;;7.30;4.32;;;;;;;;;;5022831;28;20029;-76
2021/07/21 14:11:53;;;;;;;5.25;3.90;;;;;;;;;;5027720;28;20538;-75
2021/07/21 14:14:20;;;;;;;6.28;3.90;;;;;;;;;;5025257;28;20037;-76
2021/07/21 14:16:46;;;;;;;7.18;4.28;;;;;;;;;;5033852;28;20030;-77
2021/07/21 14:19:13;;;;;;;5.40;3.97;;;;;;;;;;5044482;28;20034;-75
2021/07/21 14:21:40;;;;;;;10.00;4.20;;;;;;;;;;5026105;28;20033;-74
2021/07/21 14:24:07;;;;;;;8.90;4.90;;;;;;;;;;5020500;28;20037;-77
2021/07/21 14:26:34;;;;;;;6.88;3.85;;;;;;;;;;5025788;28;20032;-76
2021/07/21 14:29:00;;;;;;;10.77;4.57;;;;;;;;;;5027890;28;20022;-74
2021/07/21 14:31:27;;;;;;;9.00;3.92;;;;;;;;;;5021227;28;20072;-75
2021/07/21 14:33:53;;;;;;;69.63;8.02;;;;;;;;;;5022927;28;20065;-76
2021/07/21 14:36:20;;;;;;;10.75;5.22;;;;;;;;;;5042112;28;20063;-75
2021/07/21 14:38:47;;;;;;;10.68;4.45;;;;;;;;;;5042952;28;20454;-76
2021/07/21 14:41:13;;;;;;;20.02;5.05;;;;;;;;;;5026497;28;20136;-75
2021/07/21 14:43:39;;;;;;;9.80;4.10;;;;;;;;;;5027540;28;20028;-73
2021/07/21 14:46:06;;;;;;;6.88;4.80;;;;;;;;;;5027093;28;20026;-74
2021/07/21 14:48:36;;;;;;;8.43;4.57;;;;;;;;;;5027075;28;20481;-75
2021/07/21 14:51:03;;;;;;;5.38;3.65;;;;;;;;;;5027150;28;20503;-74
2021/07/21 14:53:29;;;;;;;8.57;5.55;;;;;;;;;;5027262;28;20519;-75